Time;durP1;ratioP1;P1;durP2;ratioP2;P2;SDS_P1;SDS_P2;PMS_P1;PMS_P2;Temp;Humidity;BMP_temperature;BMP_pressure;BME280_temperature;BME280_humidity;BME280_pressure;Samples;Min_cycle;Max_cycle;Signal;HPM_P1;HPM_P2
2022/06/01 00:01:54;;;;;;;7.18;5.35;;;;;;;12.92;84.89;101238.56;5032745;28;20057;-47
2022/06/01 00:04:41;;;;;;;8.10;6.00;;;;;;;12.94;84.67;101241.81;5027768;28;20136;-49
2022/06/01 00:07:29;;;;;;;7.72;5.68;;;;;;;12.93;85.11;101249.22;5020026;28;20484;-50
2022/06/01 00:09:58;;;;;;;7.53;5.55;;;;;;;12.95;84.95;101248.94;5015627;28;20050;-49
2022/06/01 00:12:46;;;;;;;8.73;6.32;;;;;;;12.98;84.54;101251.13;5016636;28;20052;-47
2022/06/01 00:15:33;;;;;;;9.95;6.22;;;;;;;12.99;84.02;101250.88;5015418;28;20061;-44
2022/06/01 00:18:22;;;;;;;9.27;6.30;;;;;;;12.96;84.67;101248.69;5016333;28;20042;-49
2022/06/01 00:21:10;;;;;;;9.30;5.80;;;;;;;12.96;84.51;101256.88;5013490;28;20408;-48
2022/06/01 00:23:57;;;;;;;8.32;5.75;;;;;;;12.98;84.90;101256.59;5015802;28;20054;-46
2022/06/01 00:26:45;;;;;;;8.18;6.28;;;;;;;12.98;83.90;101253.88;5015122;28;20064;-48
2022/06/01 00:29:33;;;;;;;6.97;5.30;;;;;;;12.98;84.11;101260.16;5020756;28;20049;-48
2022/06/01 00:32:20;;;;;;;8.00;5.57;;;;;;;12.99;83.85;101259.06;5017336;28;20511;-47
2022/06/01 00:35:09;;;;;;;8.18;6.25;;;;;;;13.01;83.81;101258.78;5017670;28;20073;-46
2022/06/01 00:37:57;;;;;;;9.07;5.72;;;;;;;13.02;84.46;101260.44;5012490;28;20042;-47
2022/06/01 00:40:44;;;;;;;7.30;5.60;;;;;;;13.00;83.70;101252.50;5016298;28;20045;-48
2022/06/01 00:43:26;;;;;;;8.27;6.20;;;;;;;13.00;84.13;101252.50;5027988;28;20050;-47
2022/06/01 00:46:14;;;;;;;9.15;6.13;;;;;;;13.00;83.95;101254.41;5021913;28;20159;-48
2022/06/01 00:49:13;;;;;;;8.63;6.50;;;;;;;12.98;84.12;101259.34;5019761;28;20061;-47
2022/06/01 00:52:02;;;;;;;7.50;5.90;;;;;;;12.97;84.05;101252.22;5018822;28;20053;-48
2022/06/01 00:54:50;;;;;;;9.85;6.32;;;;;;;12.97;83.71;101252.22;5024224;28;20046;-51
2022/06/01 00:57:38;;;;;;;8.93;6.60;;;;;;;12.95;84.26;101248.94;5018765;28;20048;-52
2022/06/01 01:00:28;;;;;;;8.93;6.97;;;;;;;12.92;83.85;101252.25;5022176;28;20097;-47
2022/06/01 01:03:17;;;;;;;9.50;7.53;;;;;;;12.93;84.01;101251.13;5022825;28;20395;-52
2022/06/01 01:06:10;;;;;;;8.63;7.03;;;;;;;12.94;83.20;101258.22;4997341;28;20485;-47
2022/06/01 01:08:59;;;;;;;10.48;6.82;;;;;;;12.92;83.50;101254.97;5018590;28;20054;-50
2022/06/01 01:11:59;;;;;;;9.35;7.75;;;;;;;12.91;83.59;101253.31;5025611;28;20046;-50
2022/06/01 01:14:47;;;;;;;9.15;7.38;;;;;;;12.90;83.30;101246.22;5022628;28;20049;-47
2022/06/01 01:17:37;;;;;;;10.25;7.32;;;;;;;12.88;83.78;101248.41;5029602;28;20054;-48
2022/06/01 01:20:25;;;;;;;9.82;7.90;;;;;;;12.87;83.73;101242.13;5031489;28;20053;-50
2022/06/01 01:23:18;;;;;;;11.70;8.00;;;;;;;12.86;83.64;101243.19;5020356;28;20050;-49
2022/06/01 01:26:06;;;;;;;10.15;7.55;;;;;;;12.83;83.84;101240.19;5024337;28;20050;-50
2022/06/01 01:28:54;;;;;;;10.85;8.00;;;;;;;12.79;84.02;101248.94;5014835;28;20049;-50
2022/06/01 01:31:43;;;;;;;11.15;8.35;;;;;;;12.65;83.33;101253.31;5031535;28;20041;-45
2022/06/01 01:34:30;;;;;;;10.23;8.18;;;;;;;12.53;85.27;101253.56;5032477;28;20410;-45
2022/06/01 01:37:23;;;;;;;9.10;8.05;;;;;;;12.53;86.05;101247.25;5028913;28;20042;-48
2022/06/01 01:40:11;;;;;;;10.93;8.02;;;;;;;12.57;85.37;101240.97;5029827;28;20052;-52
2022/06/01 01:42:54;;;;;;;10.38;8.18;;;;;;;12.64;84.93;101239.91;5016312;28;20056;-50
2022/06/01 01:45:42;;;;;;;10.85;8.55;;;;;;;12.68;84.80;101244.56;5020672;28;20551;-47
2022/06/01 01:48:30;;;;;;;14.07;9.07;;;;;;;12.70;84.71;101242.38;5033364;28;20049;-47
2022/06/01 01:51:23;;;;;;;11.77;9.05;;;;;;;12.69;84.46;101240.72;5018939;28;20045;-48
2022/06/01 01:54:35;;;;;;;12.60;9.82;;;;;;;12.68;84.65;101251.94;5020020;28;20045;-47
2022/06/01 01:57:43;;;;;;;11.75;9.95;;;;;;;12.62;84.48;101245.63;5034623;28;20053;-49
2022/06/01 02:00:49;;;;;;;12.60;10.27;;;;;;;12.57;85.64;101246.44;5030018;28;20045;-49
2022/06/01 02:03:42;;;;;;;;;;;;;;;12.56;85.24;101236.63;5013543;28;20049;-48
2022/06/01 02:06:40;;;;;;;12.15;9.23;;;;;;;12.58;86.05;101239.09;5014000;28;19921;-50
2022/06/01 02:12:40;;;;;;;10.80;9.13;;;;;;;12.61;86.38;101237.72;5003572;28;20053;-47
2022/06/01 02:12:41;;;;;;;12.93;9.98;;;;;;;12.65;86.02;101238.78;5017807;28;20055;-50
2022/06/01 02:15:33;;;;;;;11.98;9.95;;;;;;;12.66;85.80;101240.44;5014160;28;20057;-50
2022/06/01 02:18:36;;;;;;;12.02;9.93;;;;;;;12.69;85.34;101246.19;5028388;28;20045;-49
2022/06/01 02:21:25;;;;;;;11.82;10.13;;;;;;;12.69;85.60;101246.19;5022206;28;20501;-48
2022/06/01 02:24:12;;;;;;;12.52;10.13;;;;;;;12.71;85.97;101241.28;5013889;28;20058;-50
2022/06/01 02:27:00;;;;;;;13.50;10.73;;;;;;;12.70;85.80;101247.84;5023268;28;20099;-47
2022/06/01 02:30:09;;;;;;;14.85;10.23;;;;;;;12.71;86.42;101244.00;5019291;28;20053;-49
2022/06/01 02:32:58;;;;;;;12.73;10.23;;;;;;;12.70;86.30;101239.66;5020933;28;20054;-48
2022/06/01 02:35:53;;;;;;;13.82;10.57;;;;;;;12.71;86.02;101244.00;5026178;28;20041;-51
2022/06/01 02:38:44;;;;;;;13.40;11.45;;;;;;;12.70;86.31;101247.00;5031827;28;20037;-50
2022/06/01 02:44:39;;;;;;;14.23;11.00;;;;;;;12.62;86.52;101242.91;5026791;28;20054;-53
2022/06/01 02:47:30;;;;;;;14.85;11.63;;;;;;;12.60;87.14;101236.88;5031463;28;20050;-53
2022/06/01 02:50:23;;;;;;;13.18;10.55;;;;;;;12.60;86.87;101236.06;5028079;28;20515;-50
2022/06/01 02:53:11;;;;;;;16.25;11.38;;;;;;;12.61;87.25;101235.00;5013188;28;20496;-48
2022/06/01 02:55:59;;;;;;;17.65;11.00;;;;;;;12.62;87.29;101234.69;5017796;28;20520;-48
2022/06/01 02:58:46;;;;;;;13.38;10.55;;;;;;;12.63;86.90;101236.34;5020282;28;20045;-47
2022/06/01 03:01:35;;;;;;;12.70;10.18;;;;;;;12.64;87.70;101240.72;5004133;28;20049;-48
2022/06/01 03:04:23;;;;;;;13.82;10.98;;;;;;;12.63;86.92;101230.88;5023233;28;20056;-49
2022/06/01 03:07:18;;;;;;;13.27;10.90;;;;;;;12.63;86.80;101241.81;5030034;28;20134;-47
2022/06/01 03:10:06;;;;;;;14.48;10.77;;;;;;;12.62;87.24;101231.16;5022284;28;20064;-51
2022/06/01 03:12:54;;;;;;;13.77;10.57;;;;;;;12.60;86.71;101228.66;5019424;28;20496;-47
2022/06/01 03:15:42;;;;;;;14.90;11.40;;;;;;;12.58;87.22;101233.63;5019363;28;20049;-48
2022/06/01 03:18:31;;;;;;;14.32;11.55;;;;;;;12.57;86.97;101229.22;5018565;28;20488;-48
2022/06/01 03:21:19;;;;;;;16.20;11.70;;;;;;;12.56;86.49;101233.88;5026195;28;20045;-48
2022/06/01 03:24:08;;;;;;;14.35;10.63;;;;;;;12.56;86.50;101235.78;5023526;28;20046;-49
2022/06/01 03:26:56;;;;;;;14.32;11.18;;;;;;;12.54;86.34;101233.31;5019197;28;20053;-49
2022/06/01 03:29:45;;;;;;;14.55;10.60;;;;;;;12.52;86.32;101234.69;5032899;28;20103;-53
2022/06/01 03:32:32;;;;;;;16.02;10.68;;;;;;;12.51;85.42;101246.72;5018993;28;20052;-50
2022/06/01 03:35:23;;;;;;;17.38;11.45;;;;;;;12.49;85.77;101230.59;5026866;28;20053;-51
2022/06/01 03:38:12;;;;;;;16.63;10.85;;;;;;;12.49;85.38;101235.25;5020390;28;20046;-53
2022/06/01 03:41:00;;;;;;;14.10;10.57;;;;;;;12.48;85.62;101239.03;5029587;28;20049;-49
2022/06/01 03:47:01;;;;;;;13.23;10.57;;;;;;;12.47;85.55;101243.69;5014514;28;20057;-50
2022/06/01 03:49:48;;;;;;;15.57;10.80;;;;;;;12.48;85.51;101244.50;5008708;28;20404;-51
2022/06/01 03:52:37;;;;;;;15.00;10.35;;;;;;;12.47;84.88;101245.63;5017274;28;20048;-50
2022/06/01 03:55:24;;;;;;;15.52;10.73;;;;;;;12.46;84.71;101253.00;5013348;28;20108;-48
2022/06/01 03:58:18;;;;;;;15.55;11.02;;;;;;;12.45;85.07;101250.53;5015612;28;20159;-50
2022/06/01 04:01:06;;;;;;;13.98;10.80;;;;;;;12.45;84.52;101250.53;5021301;28;20041;-48
2022/06/01 04:03:54;;;;;;;12.30;10.55;;;;;;;12.45;85.24;101256.00;5031547;28;20045;-52
2022/06/01 04:06:42;;;;;;;14.27;10.35;;;;;;;12.46;84.20;101257.63;5032191;28;20050;-48
2022/06/01 04:09:30;;;;;;;16.90;9.93;;;;;;;12.46;84.78;101260.34;5004014;28;20512;-48
2022/06/01 04:12:18;;;;;;;14.05;10.50;;;;;;;12.46;84.51;101268.56;5023528;28;20054;-49
2022/06/01 04:15:08;;;;;;;13.38;10.32;;;;;;;12.43;84.42;101258.16;5029833;28;20060;-48
2022/06/01 04:17:56;;;;;;;15.13;10.57;;;;;;;12.40;84.28;101265.00;5026741;28;20054;-48
2022/06/01 04:20:44;;;;;;;15.45;10.68;;;;;;;12.40;85.07;101255.97;5022141;28;20504;-48
2022/06/01 04:23:34;;;;;;;14.60;10.52;;;;;;;12.35;84.95;101257.59;5031166;28;20037;-49
2022/06/01 04:26:18;;;;;;;14.48;10.70;;;;;;;12.33;84.74;101259.78;5031479;28;20049;-50
2022/06/01 04:29:05;;;;;;;14.27;10.75;;;;;;;12.34;84.56;101255.97;5023953;28;20493;-49
2022/06/01 04:32:03;;;;;;;12.95;9.98;;;;;;;12.35;84.15;101257.59;5021772;28;20482;-50
2022/06/01 04:34:51;;;;;;;15.63;10.43;;;;;;;12.36;84.70;101251.06;5018225;28;20598;-49
2022/06/01 04:37:39;;;;;;;12.30;9.23;;;;;;;12.40;84.17;101258.72;5025011;28;20045;-48
2022/06/01 04:40:28;;;;;;;14.13;10.10;;;;;;;12.37;84.30;101251.88;5024749;28;20104;-50
2022/06/01 04:43:18;;;;;;;15.23;9.88;;;;;;;12.35;84.52;101263.06;5022094;28;20041;-47
2022/06/01 04:46:12;;;;;;;15.95;10.15;;;;;;;12.36;84.06;101253.78;5028550;28;20408;-48
2022/06/01 04:49:00;;;;;;;11.75;8.98;;;;;;;12.36;84.39;101253.78;5021350;28;20049;-50
2022/06/01 04:51:48;;;;;;;13.18;9.48;;;;;;;12.36;83.83;101261.16;5019404;28;20050;-49
2022/06/01 04:54:35;;;;;;;14.45;9.57;;;;;;;12.36;84.27;101264.72;5023008;28;20049;-48
2022/06/01 04:57:23;;;;;;;13.20;9.52;;;;;;;12.38;84.36;101255.44;5027945;28;20049;-48
2022/06/01 05:00:11;;;;;;;15.30;9.88;;;;;;;12.40;84.92;101259.53;5005691;28;20050;-48
2022/06/01 05:02:59;;;;;;;16.35;11.45;;;;;;;12.40;84.49;101254.06;5025909;28;20173;-50
2022/06/01 05:05:47;;;;;;;18.30;12.35;;;;;;;12.34;84.88;101250.50;5020128;28;20049;-48
2022/06/01 05:08:35;;;;;;;23.40;12.13;;;;;;;12.31;85.44;101255.69;5015892;28;20056;-49
2022/06/01 05:11:22;;;;;;;15.90;11.85;;;;;;;12.28;85.30;101262.50;5021871;28;20061;-49
2022/06/01 05:14:10;;;;;;;15.35;10.40;;;;;;;12.27;86.48;101260.06;5019876;28;20060;-52
2022/06/01 05:16:59;;;;;;;13.55;8.43;;;;;;;12.31;85.93;101261.97;5021840;28;20511;-52
2022/06/01 05:19:44;;;;;;;12.40;8.98;;;;;;;12.30;85.54;101259.50;5029936;28;20463;-49
2022/06/01 05:22:31;;;;;;;13.73;8.20;;;;;;;12.29;86.06;101264.16;5035079;28;20049;-51
2022/06/01 05:25:21;;;;;;;15.88;9.38;;;;;;;12.33;86.19;101259.78;5023103;28;20052;-50
2022/06/01 05:28:09;;;;;;;11.18;7.85;;;;;;;12.35;86.15;101260.34;5017455;28;20058;-50
2022/06/01 05:31:03;;;;;;;14.32;9.80;;;;;;;12.38;86.79;101263.63;5018983;28;20038;-50
2022/06/01 05:33:51;;;;;;;13.70;9.07;;;;;;;12.46;85.17;101268.56;5020608;28;20053;-53
2022/06/01 05:36:38;;;;;;;13.40;8.32;;;;;;;12.55;85.44;101266.94;5028762;28;20053;-51
2022/06/01 05:39:26;;;;;;;15.80;8.85;;;;;;;12.52;85.58;101270.22;5028683;28;20863;-49
2022/06/01 05:42:14;;;;;;;19.35;11.13;;;;;;;12.40;85.99;101265.00;5021248;28;20077;-54
2022/06/01 05:45:20;;;;;;;14.67;9.97;;;;;;;12.33;86.19;101269.91;4994391;28;10001132;-51
2022/06/01 05:48:10;;;;;;;13.77;7.70;;;;;;;12.41;85.76;101276.75;5016799;28;20269;-49
2022/06/01 05:50:58;;;;;;;10.57;6.15;;;;;;;12.51;85.58;101274.88;5013325;28;20041;-49
2022/06/01 05:53:46;;;;;;;12.60;6.95;;;;;;;12.52;85.42;101283.88;5017700;28;20058;-50
2022/06/01 05:56:34;;;;;;;17.48;10.82;;;;;;;12.65;84.60;101285.28;5013432;28;20054;-50
2022/06/01 05:59:21;;;;;;;14.30;9.98;;;;;;;12.58;86.50;101288.28;5019264;28;20056;-50
2022/06/01 06:02:10;;;;;;;20.92;10.50;;;;;;;12.51;86.15;101287.72;5031081;28;20136;-48
2022/06/01 06:04:58;;;;;;;13.93;8.13;;;;;;;12.52;86.54;101292.09;5017159;28;20380;-49
2022/06/01 06:07:45;;;;;;;20.55;9.68;;;;;;;12.66;85.28;101295.94;5018666;28;20488;-57
2022/06/01 06:10:33;;;;;;;8.70;4.88;;;;;;;12.63;85.32;101290.19;5031794;28;20053;-53
2022/06/01 06:13:04;;;;;;;10.38;7.07;;;;;;;12.65;86.20;101283.38;5011354;28;20166;-52
2022/06/01 06:15:51;;;;;;;17.85;9.13;;;;;;;12.63;86.85;101285.56;5026979;28;20523;-49
2022/06/01 06:18:39;;;;;;;12.90;8.55;;;;;;;12.61;87.43;101293.22;5016094;28;20054;-46
2022/06/01 06:21:29;;;;;;;16.45;10.90;;;;;;;12.56;87.53;101295.94;5014781;28;20044;-49
2022/06/01 06:24:20;;;;;;;13.27;8.93;;;;;;;12.52;88.37;101298.38;5026346;28;20081;-48
2022/06/01 06:27:08;;;;;;;13.90;9.38;;;;;;;12.53;88.24;101302.75;5009906;28;20128;-50
2022/06/01 06:29:56;;;;;;;15.75;9.88;;;;;;;12.54;88.48;101300.84;5027704;28;20058;-48
2022/06/01 06:32:44;;;;;;;14.18;9.30;;;;;;;12.52;89.43;101303.84;5016722;28;20050;-49
2022/06/01 06:35:31;;;;;;;11.63;6.20;;;;;;;12.61;87.98;101303.31;5016388;28;20053;-48
2022/06/01 06:38:19;;;;;;;15.60;8.57;;;;;;;12.68;88.38;101299.25;5025581;28;20045;-52
2022/06/01 06:41:08;;;;;;;12.68;7.22;;;;;;;12.78;87.91;101314.84;5030204;28;20061;-48
2022/06/01 06:43:56;;;;;;;14.75;9.70;;;;;;;12.72;88.08;101316.75;5024463;28;20364;-53
2022/06/01 06:46:44;;;;;;;16.60;9.07;;;;;;;12.70;89.73;101313.47;5024908;28;20054;-53
2022/06/01 06:49:32;;;;;;;17.30;9.68;;;;;;;12.69;89.52;101322.75;5030547;28;20137;-53
2022/06/01 06:52:19;;;;;;;7.75;4.18;;;;;;;12.76;88.21;101311.56;5026387;28;20400;-50
2022/06/01 06:55:08;;;;;;;10.88;6.72;;;;;;;12.83;87.95;101319.50;5020640;28;20132;-51
2022/06/01 06:57:56;;;;;;;14.00;8.40;;;;;;;12.88;88.71;101319.50;5030667;28;20057;-51
2022/06/01 07:00:43;;;;;;;15.63;8.93;;;;;;;12.87;88.92;101323.31;5030252;28;20049;-51
2022/06/01 07:03:31;;;;;;;14.80;7.88;;;;;;;12.86;88.58;101327.16;5030027;28;20480;-52
2022/06/01 07:06:19;;;;;;;10.90;7.25;;;;;;;12.87;89.32;101326.03;5024663;28;20069;-54
2022/06/01 07:08:52;;;;;;;12.38;7.57;;;;;;;13.00;87.82;101331.00;5017120;28;20058;-48
2022/06/01 07:11:39;;;;;;;15.40;8.52;;;;;;;13.01;88.78;101324.44;5028777;28;20053;-53
2022/06/01 07:14:27;;;;;;;13.15;7.07;;;;;;;13.07;88.68;101330.75;5011663;28;20053;-52
2022/06/01 07:17:15;;;;;;;12.88;7.00;;;;;;;13.13;88.29;101333.22;5012784;28;20053;-47
2022/06/01 07:20:03;;;;;;;12.40;6.53;;;;;;;13.17;87.19;101339.78;5029868;28;20423;-48
2022/06/01 07:22:50;;;;;;;10.32;6.10;;;;;;;13.27;86.97;101335.41;5025941;28;20504;-47
2022/06/01 07:25:35;;;;;;;10.52;6.32;;;;;;;13.33;86.08;101334.34;5017787;28;20045;-51
2022/06/01 07:28:23;;;;;;;10.48;6.13;;;;;;;13.19;84.93;101336.78;5019651;28;20460;-50
2022/06/01 07:31:11;;;;;;;20.60;6.63;;;;;;;13.24;84.25;101333.22;5015198;28;20056;-49
2022/06/01 07:33:58;;;;;;;9.77;5.25;;;;;;;13.27;85.37;101332.66;5006060;28;20077;-47
2022/06/01 07:36:48;;;;;;;13.57;5.55;;;;;;;13.47;83.06;101338.19;5012997;28;20045;-51
2022/06/01 07:45:48;;;;;;;19.98;6.55;;;;;;;13.52;81.55;101332.69;5013886;28;20042;-48
2022/06/01 07:48:36;;;;;;;18.20;6.45;;;;;;;13.55;81.86;101343.09;5015039;28;20052;-49
2022/06/01 07:51:44;;;;;;;11.32;5.32;;;;;;;13.63;81.40;101341.72;5012400;28;20054;-46
2022/06/01 07:54:31;;;;;;;19.98;6.88;;;;;;;13.68;80.64;101346.34;5012443;28;20045;-46
2022/06/01 07:57:13;;;;;;;11.65;6.28;;;;;;;13.66;79.82;101349.34;5013042;28;20050;-51
2022/06/01 08:00:01;;;;;;;8.00;4.65;;;;;;;13.63;79.79;101341.72;5015881;28;20050;-50
2022/06/01 08:02:58;;;;;;;13.20;4.95;;;;;;;13.71;79.37;101338.44;5016825;28;20056;-51
2022/06/01 08:05:46;;;;;;;9.30;4.55;;;;;;;13.76;78.67;101348.56;5014121;28;20046;-49
2022/06/01 08:08:33;;;;;;;12.85;5.75;;;;;;;13.84;78.47;101343.31;5012602;28;20046;-52
2022/06/01 08:13:06;;;;;;;10.35;5.00;;;;;;;13.90;78.14;101355.06;5016036;28;20501;-52
2022/06/01 08:14:31;;;;;;;9.40;5.25;;;;;;;13.87;76.42;101352.09;5012601;28;20049;-54
2022/06/01 08:17:19;;;;;;;9.23;4.85;;;;;;;13.83;75.63;101351.81;5017250;28;20050;-52
2022/06/01 08:20:07;;;;;;;8.60;5.50;;;;;;;13.80;76.16;101352.34;5015122;28;20054;-50
2022/06/01 08:22:55;;;;;;;8.80;5.18;;;;;;;13.82;76.29;101355.66;5015132;28;20130;-47
2022/06/01 08:25:43;;;;;;;9.68;5.25;;;;;;;13.83;76.17;101352.66;5018611;28;20057;-49
2022/06/01 08:28:31;;;;;;;10.93;5.60;;;;;;;13.86;76.28;101354.00;5017712;28;20403;-52
2022/06/01 08:31:04;;;;;;;12.18;4.88;;;;;;;13.90;75.83;101349.59;5016260;28;20053;-50
2022/06/01 08:33:56;;;;;;;14.05;5.72;;;;;;;13.94;75.89;101353.44;5024073;28;20408;-51
2022/06/01 08:36:44;;;;;;;10.25;5.43;;;;;;;13.92;76.59;101352.88;5025249;28;20050;-47
2022/06/01 08:39:32;;;;;;;9.40;4.93;;;;;;;13.93;77.24;101351.81;5025012;28;20034;-51
2022/06/01 08:42:23;;;;;;;10.18;5.93;;;;;;;13.95;76.91;101354.25;5007051;28;20041;-51
2022/06/01 08:45:11;;;;;;;11.20;5.25;;;;;;;13.92;75.92;101357.53;5028590;28;20411;-50
2022/06/01 08:47:59;;;;;;;12.93;5.32;;;;;;;13.91;75.27;101348.50;5031946;28;20046;-51
2022/06/01 08:50:48;;;;;;;9.32;5.05;;;;;;;13.87;74.18;101341.94;5014581;28;20060;-50
2022/06/01 08:53:36;;;;;;;9.63;4.68;;;;;;;13.91;75.21;101350.44;5031704;28;20053;-52
2022/06/01 08:56:47;;;;;;;11.40;5.00;;;;;;;13.93;74.61;101345.50;5031865;28;20049;-53
2022/06/01 08:59:49;;;;;;;9.93;5.35;;;;;;;14.01;74.58;101343.00;5025914;28;20079;-50
2022/06/01 09:02:40;;;;;;;14.07;5.95;;;;;;;14.13;74.39;101339.13;5017324;28;20056;-53
2022/06/01 09:05:13;;;;;;;13.90;5.38;;;;;;;14.23;74.91;101342.66;5027684;28;20046;-54
2022/06/01 09:08:22;;;;;;;13.88;5.72;;;;;;;14.26;73.78;101344.00;5021070;28;20049;-49
2022/06/01 09:11:15;;;;;;;12.10;6.07;;;;;;;14.31;74.38;101346.75;5016808;28;20057;-53
2022/06/01 09:14:13;;;;;;;12.13;5.90;;;;;;;14.33;74.16;101341.78;5014967;28;20054;-53
2022/06/01 09:17:02;;;;;;;8.45;4.97;;;;;;;14.33;74.02;101343.72;5021219;28;20419;-50
2022/06/01 09:23:11;;;;;;;8.80;5.30;;;;;;;14.29;74.26;101346.22;5025829;28;20515;-51
2022/06/01 09:25:59;;;;;;;11.80;5.25;;;;;;;14.27;73.72;101356.63;5020475;28;20386;-51
2022/06/01 09:28:48;;;;;;;14.88;6.40;;;;;;;14.32;75.16;101364.84;5026548;28;20049;-51
2022/06/01 09:31:40;;;;;;;12.20;5.40;;;;;;;14.28;75.87;101364.56;5023787;28;20073;-53
2022/06/01 09:34:40;;;;;;;9.30;5.75;;;;;;;14.23;77.65;101366.50;5030248;28;20045;-51
2022/06/01 09:37:37;;;;;;;13.38;5.80;;;;;;;14.16;80.15;101385.16;5025963;28;20052;-49
2022/06/01 09:40:28;;;;;;;8.93;4.72;;;;;;;13.87;79.23;101396.72;4319968;28;10000785;-54
2022/06/01 09:43:24;;;;;;;8.57;4.15;;;;;;;13.65;79.88;101410.72;5027761;28;20046;-51
2022/06/01 09:46:35;;;;;;;8.95;4.57;;;;;;;13.49;82.16;101423.56;5022910;28;20128;-49
2022/06/01 09:49:30;;;;;;;6.55;4.28;;;;;;;13.43;82.97;101419.19;5013097;28;20776;-52
2022/06/01 09:52:51;;;;;;;7.63;3.92;;;;;;;13.21;82.27;101403.00;5012021;28;20049;-53
2022/06/01 09:55:52;;;;;;;6.80;3.65;;;;;;;13.16;82.86;101398.34;5017374;28;20053;-56
2022/06/01 10:08:11;;;;;;;6.82;3.72;;;;;;;13.33;80.54;101391.81;5020486;28;20045;-52
2022/06/01 10:11:25;;;;;;;9.43;4.82;;;;;;;13.34;81.58;101387.97;5019896;28;20500;-53
2022/06/01 10:14:30;;;;;;;5.07;3.60;;;;;;;13.39;81.74;101388.78;5031678;28;20129;-49
2022/06/01 10:17:36;;;;;;;7.25;3.97;;;;;;;13.43;82.78;101395.38;5026696;28;20072;-52
2022/06/01 10:20:24;;;;;;;8.90;4.40;;;;;;;13.50;84.10;101402.50;5022130;28;20046;-51
2022/06/01 10:23:20;;;;;;;6.00;3.53;;;;;;;13.59;84.23;101407.16;5018079;28;20473;-54
2022/06/01 10:26:15;;;;;;;;;;;;;;;13.67;84.60;101407.72;5026804;28;20077;-48
2022/06/01 10:29:15;;;;;;;6.85;3.30;;;;;;;13.70;83.43;101413.44;5028592;28;19982;-52
2022/06/01 10:32:12;;;;;;;12.55;6.78;;;;;;;13.76;83.53;101422.50;5033183;28;20049;-51
2022/06/01 10:35:30;;;;;;;10.73;6.10;;;;;;;13.83;83.94;101428.53;5026687;28;20049;-53
2022/06/01 10:38:25;;;;;;;10.80;5.38;;;;;;;13.83;83.74;101434.00;5024015;28;20120;-51
2022/06/01 10:41:31;;;;;;;18.80;9.13;;;;;;;13.91;83.29;101433.44;5033604;28;20045;-53
2022/06/01 10:44:26;;;;;;;9.88;5.78;;;;;;;13.88;83.68;101424.94;5019597;28;20042;-51
2022/06/01 10:47:35;;;;;;;13.18;7.40;;;;;;;13.91;83.99;101430.69;4676079;28;10000371;-52
2022/06/01 10:50:38;;;;;;;11.38;6.13;;;;;;;13.91;84.25;101429.88;5015077;28;20045;-49
2022/06/01 10:53:59;;;;;;;23.88;13.85;;;;;;;13.92;84.36;101423.28;5010182;28;20514;-52
2022/06/01 10:56:47;;;;;;;15.98;8.88;;;;;;;13.94;84.39;101429.31;5026978;28;20053;-51
2022/06/01 10:59:35;;;;;;;14.48;9.57;;;;;;;13.98;84.50;101425.75;5022547;28;20034;-51
2022/06/01 11:02:48;;;;;;;16.05;9.10;;;;;;;14.01;84.44;101427.94;5020506;28;20057;-52
2022/06/01 11:05:51;;;;;;;11.65;6.20;;;;;;;14.03;84.22;101420.25;5020996;28;20058;-53
2022/06/01 11:09:04;;;;;;;10.63;6.22;;;;;;;14.04;83.61;101419.16;5019473;28;20054;-52
2022/06/01 11:11:50;;;;;;;12.07;7.40;;;;;;;14.11;83.24;101429.03;5016114;28;20049;-53
2022/06/01 11:15:29;;;;;;;7.70;4.30;;;;;;;14.11;81.39;101418.06;5015141;28;20041;-50
2022/06/01 11:18:02;;;;;;;7.15;4.00;;;;;;;14.11;81.62;101415.31;5016711;28;20054;-51
2022/06/01 11:21:06;;;;;;;8.15;4.60;;;;;;;14.16;81.78;101420.78;5029905;28;20045;-51
2022/06/01 11:24:03;;;;;;;8.85;5.53;;;;;;;14.23;81.75;101418.59;4998498;28;20046;-50
2022/06/01 11:27:35;;;;;;;10.10;5.13;;;;;;;14.28;80.93;101418.56;5017291;28;20090;-53
2022/06/01 11:30:33;;;;;;;7.82;5.00;;;;;;;14.31;80.20;101419.94;5017269;28;20061;-51
2022/06/01 11:33:44;;;;;;;9.18;4.50;;;;;;;14.30;78.93;101423.78;5013621;28;20408;-54
2022/06/01 11:36:37;;;;;;;7.50;4.28;;;;;;;14.32;78.83;101424.31;5017945;28;20523;-52
2022/06/01 11:39:32;;;;;;;18.00;10.13;;;;;;;14.39;78.96;101425.66;5020069;28;20049;-52
2022/06/01 11:42:43;;;;;;;9.38;4.85;;;;;;;14.36;79.19;101431.72;5014869;28;20522;-50
2022/06/01 11:45:39;;;;;;;6.90;4.13;;;;;;;14.30;76.63;101419.09;5027017;28;20079;-53
2022/06/01 11:48:34;;;;;;;7.90;4.22;;;;;;;14.28;76.00;101419.38;5021465;28;20046;-54
2022/06/01 11:51:38;;;;;;;7.43;3.78;;;;;;;14.38;74.55;101414.97;5009909;28;20049;-56
2022/06/01 11:54:35;;;;;;;10.20;4.05;;;;;;;14.56;75.07;101408.91;5014208;28;20045;-50
2022/06/01 11:57:47;;;;;;;11.60;4.68;;;;;;;14.78;73.94;101418.69;5027691;28;20056;-51
2022/06/01 12:00:51;;;;;;;15.07;8.00;;;;;;;14.93;73.07;101412.31;5017651;28;20057;-51
2022/06/01 12:03:47;;;;;;;8.35;4.65;;;;;;;15.01;70.92;101408.94;5014863;28;20405;-51
2022/06/01 12:06:42;;;;;;;7.28;4.60;;;;;;;15.06;71.01;101411.69;5015843;28;20053;-54
2022/06/01 12:09:45;;;;;;;7.90;4.60;;;;;;;15.12;70.99;101399.56;5027607;28;20065;-54
2022/06/01 12:12:33;;;;;;;8.55;4.28;;;;;;;15.22;71.70;101396.75;5020968;28;20053;-51
2022/06/01 12:16:03;;;;;;;7.20;4.63;;;;;;;15.29;69.57;101394.50;5028959;28;20402;-50
2022/06/01 12:19:22;;;;;;;7.78;4.57;;;;;;;15.22;69.32;101404.97;5027757;28;20117;-53
2022/06/01 12:28:30;;;;;;;7.53;4.18;;;;;;;15.09;69.22;101400.94;5018589;28;20058;-48
2022/06/01 12:28:58;;;;;;;8.73;4.57;;;;;;;14.99;69.62;101428.47;5027598;28;20420;-48
2022/06/01 12:31:58;;;;;;;3.95;2.95;;;;;;;14.93;64.91;101421.34;5026639;28;20045;-48
2022/06/01 12:35:01;;;;;;;4.50;2.60;;;;;;;14.87;62.00;101426.06;5021097;28;20050;-52
2022/06/01 12:37:53;;;;;;;5.43;3.05;;;;;;;14.95;63.42;101421.09;5004525;28;20104;-52
2022/06/01 12:40:42;;;;;;;3.38;2.35;;;;;;;15.08;62.77;101421.28;4994922;28;20042;-49
2022/06/01 12:43:31;;;;;;;4.80;2.55;;;;;;;15.21;62.00;101419.00;5021035;28;20137;-53
2022/06/01 12:46:21;;;;;;;2.75;2.20;;;;;;;15.27;60.22;101412.38;5027088;28;20123;-52
2022/06/01 12:49:38;;;;;;;3.78;2.20;;;;;;;15.33;58.95;101427.72;5022985;28;20076;-51
2022/06/01 12:52:26;;;;;;;6.05;3.80;;;;;;;15.40;57.84;101419.16;5019227;28;20045;-52
2022/06/01 12:55:22;;;;;;;4.85;1.52;;;;;;;15.46;56.05;101410.56;5029924;28;20046;-53
2022/06/01 12:58:21;;;;;;;;;;;;;;;15.58;55.14;101412.13;5027666;28;20042;-50
2022/06/01 13:01:09;;;;;;;2.55;1.40;;;;;;;15.70;54.89;101407.94;5027464;28;19936;-51
2022/06/01 13:03:59;;;;;;;3.22;1.70;;;;;;;15.81;53.04;101416.09;5022736;28;20054;-51
2022/06/01 13:06:46;;;;;;;2.60;1.45;;;;;;;15.89;51.47;101419.03;5015241;28;20045;-50
2022/06/01 13:09:35;;;;;;;4.53;1.83;;;;;;;15.88;49.51;101424.84;5024363;28;20519;-52
2022/06/01 13:12:29;;;;;;;1.95;1.58;;;;;;;15.87;51.06;101420.44;5015938;28;20057;-50
2022/06/01 13:15:26;;;;;;;2.85;1.63;;;;;;;15.88;51.68;101405.59;5031339;28;20515;-48
2022/06/01 13:18:20;;;;;;;3.30;1.60;;;;;;;15.96;52.06;101419.50;5024763;28;20520;-48
2022/06/01 13:21:14;;;;;;;3.78;1.80;;;;;;;15.98;52.66;101431.03;5024845;28;20503;-48
2022/06/01 13:24:06;;;;;;;3.03;1.65;;;;;;;16.00;54.67;101429.94;5012004;28;20061;-50
2022/06/01 13:26:55;;;;;;;2.35;1.75;;;;;;;15.98;54.72;101427.47;5012143;28;20049;-48
2022/06/01 13:29:46;;;;;;;2.22;1.83;;;;;;;16.00;53.44;101428.00;5022994;28;20508;-49
2022/06/01 13:32:47;;;;;;;3.20;1.55;;;;;;;16.00;54.20;101422.50;5019348;28;20045;-48
2022/06/01 13:35:43;;;;;;;3.92;1.85;;;;;;;16.03;52.23;101432.94;5024453;28;20049;-55
2022/06/01 13:38:45;;;;;;;4.88;1.70;;;;;;;16.04;52.42;101437.31;5022823;28;20050;-51
2022/06/01 13:41:41;;;;;;;4.43;1.90;;;;;;;16.04;54.28;101429.06;5021189;28;20049;-50
2022/06/01 13:44:49;;;;;;;6.50;1.90;;;;;;;15.97;52.81;101437.66;5031917;28;20091;-49